createdAt,value
2022-11-12T00:00:54.123Z,73.12
2022-11-12T00:01:54.192Z,73.12
2022-11-12T00:02:54.090Z,73.15
2022-11-12T00:03:54.082Z,73.15
2022-11-12T00:04:54.062Z,73.15
2022-11-12T00:05:54.059Z,73.15
2022-11-12T00:06:54.103Z,73.15
2022-11-12T00:07:54.036Z,73.15
2022-11-12T00:08:54.024Z,73.15
2022-11-12T00:09:54.020Z,73.25
2022-11-12T00:10:53.995Z,73.36
2022-11-12T00:11:53.991Z,73.36
2022-11-12T00:12:53.977Z,73.36
2022-11-12T00:13:53.951Z,73.36
2022-11-12T00:14:53.948Z,73.36
2022-11-12T00:15:53.930Z,73.36
2022-11-12T00:16:53.930Z,73.50
2022-11-12T00:17:53.913Z,73.50
2022-11-12T00:18:53.889Z,73.50
2022-11-12T00:19:53.878Z,73.50
2022-11-12T00:20:53.865Z,73.60
2022-11-12T00:21:53.878Z,73.60
2022-11-12T00:22:53.838Z,73.60
2022-11-12T00:23:53.828Z,73.60
2022-11-12T00:24:53.815Z,73.60
2022-11-12T00:25:53.808Z,73.71
2022-11-12T00:26:53.798Z,73.60
2022-11-12T00:27:53.780Z,73.71
2022-11-12T00:28:53.768Z,73.63
2022-11-12T00:29:53.747Z,73.74
2022-11-12T00:30:53.737Z,73.74
2022-11-12T00:31:53.759Z,73.74
2022-11-12T00:32:53.707Z,73.74
2022-11-12T00:33:53.707Z,73.84
2022-11-12T00:34:53.699Z,73.84
2022-11-12T00:35:53.685Z,73.84
2022-11-12T00:36:53.686Z,73.94
2022-11-12T00:37:53.751Z,73.94
2022-11-12T00:38:53.637Z,73.94
2022-11-12T00:39:53.625Z,73.94
2022-11-12T00:40:53.617Z,74.08
2022-11-12T00:41:53.615Z,74.08
2022-11-12T00:42:53.582Z,74.08
2022-11-12T00:43:53.582Z,74.08
2022-11-12T00:44:53.563Z,74.08
2022-11-12T00:45:53.552Z,74.19
2022-11-12T00:46:53.554Z,74.08
2022-11-12T00:47:53.533Z,74.19
2022-11-12T00:48:53.514Z,74.19
2022-11-12T00:49:53.502Z,74.29
2022-11-12T00:50:53.482Z,74.29
2022-11-12T00:51:53.493Z,74.40
2022-11-12T00:52:53.463Z,74.29
2022-11-12T00:53:53.452Z,74.29
2022-11-12T00:54:53.432Z,74.40
2022-11-12T00:55:53.437Z,74.40
2022-11-12T00:56:53.426Z,74.43
2022-11-12T00:57:53.400Z,74.43
2022-11-12T00:58:53.383Z,74.43
2022-11-12T00:59:53.380Z,74.53
2022-11-12T01:00:53.424Z,74.53
2022-11-12T01:01:53.361Z,74.53
2022-11-12T01:02:53.338Z,74.53
2022-11-12T01:03:53.390Z,74.43
2022-11-12T01:04:53.321Z,74.53
2022-11-12T01:05:53.300Z,74.53
2022-11-12T01:06:53.315Z,74.43
2022-11-12T01:07:56.030Z,74.43
2022-11-12T01:08:53.259Z,74.53
2022-11-12T01:09:53.249Z,74.53
2022-11-12T01:10:53.238Z,74.53
2022-11-12T01:11:53.238Z,74.63
2022-11-12T01:12:53.209Z,74.63
2022-11-12T01:13:53.201Z,74.57
2022-11-12T01:14:53.177Z,74.67
2022-11-12T01:15:53.179Z,74.67
2022-11-12T01:16:53.168Z,74.67
2022-11-12T01:17:53.159Z,74.67
2022-11-12T01:18:53.137Z,74.77
2022-11-12T01:19:53.131Z,74.77
2022-11-12T01:20:53.112Z,74.77
2022-11-12T01:21:53.114Z,74.77
2022-11-12T01:22:53.086Z,74.98
2022-11-12T01:23:53.068Z,74.98
2022-11-12T01:24:53.060Z,75.09
2022-11-12T01:25:53.056Z,74.98
2022-11-12T01:26:53.047Z,75.09
2022-11-12T01:27:53.028Z,74.98
2022-11-12T01:28:53.006Z,74.98
2022-11-12T01:29:52.996Z,74.98
2022-11-12T01:30:52.986Z,75.02
2022-11-12T01:31:52.985Z,75.02
2022-11-12T01:32:52.954Z,75.02
2022-11-12T01:33:52.953Z,75.02
2022-11-12T01:34:52.924Z,75.02
2022-11-12T01:35:52.925Z,75.12
2022-11-12T01:36:52.923Z,75.23
2022-11-12T01:37:52.902Z,75.23
2022-11-12T01:38:52.883Z,75.23
2022-11-12T01:39:52.872Z,75.23
2022-11-12T01:40:52.853Z,75.23
2022-11-12T01:41:52.860Z,75.33
2022-11-12T01:42:52.821Z,75.43
2022-11-12T01:43:52.811Z,75.43
2022-11-12T01:44:52.821Z,75.33
2022-11-12T01:45:52.790Z,75.33
2022-11-12T01:46:52.790Z,75.33
2022-11-12T01:47:52.771Z,75.26
2022-11-12T01:48:52.755Z,75.36
2022-11-12T01:49:56.299Z,75.36
2022-11-12T01:50:52.720Z,75.46
2022-11-12T01:51:52.739Z,75.46
2022-11-12T01:52:52.730Z,75.46
2022-11-12T01:53:52.690Z,75.46
2022-11-12T01:54:52.670Z,75.57
2022-11-12T01:55:52.659Z,75.57
2022-11-12T01:56:52.659Z,75.57
2022-11-12T01:57:52.640Z,75.46
2022-11-12T01:58:52.617Z,75.57
2022-11-12T01:59:52.615Z,75.46
2022-11-12T02:00:52.663Z,75.57
2022-11-12T02:01:52.598Z,75.57
2022-11-12T02:02:52.567Z,75.57
2022-11-12T02:03:52.564Z,75.57
2022-11-12T02:04:52.546Z,75.57
2022-11-12T02:05:52.535Z,75.57
2022-11-12T02:06:52.584Z,75.60
2022-11-12T02:07:52.524Z,75.57
2022-11-12T02:08:52.512Z,75.60
2022-11-12T02:09:52.503Z,75.60
2022-11-12T02:10:52.475Z,75.71
2022-11-12T02:11:52.465Z,75.71
2022-11-12T02:12:52.451Z,75.71
2022-11-12T02:13:52.434Z,75.71
2022-11-12T02:14:52.414Z,75.71
2022-11-12T02:15:52.404Z,75.71
2022-11-12T02:16:52.402Z,75.71
2022-11-12T02:17:52.378Z,75.71
2022-11-12T02:18:52.362Z,75.71
2022-11-12T02:19:52.353Z,75.81
2022-11-12T02:20:52.333Z,75.81
2022-11-12T02:21:52.341Z,75.81
2022-11-12T02:22:52.312Z,75.81
2022-11-12T02:23:52.303Z,75.81
2022-11-12T02:24:52.284Z,75.81
2022-11-12T02:25:52.279Z,75.85
2022-11-12T02:26:52.280Z,76.06
2022-11-12T02:27:52.251Z,76.06
2022-11-12T02:28:52.231Z,76.06
2022-11-12T02:29:52.229Z,76.06
2022-11-12T02:30:52.212Z,76.06
2022-11-12T02:31:52.220Z,76.06
2022-11-12T02:32:52.180Z,76.06
2022-11-12T02:33:52.168Z,76.06
2022-11-12T02:34:52.150Z,76.16
2022-11-12T02:35:52.138Z,76.16
2022-11-12T02:37:00.825Z,76.16
2022-11-12T02:37:59.627Z,76.06
2022-11-12T02:38:52.109Z,76.16
2022-11-12T02:39:52.087Z,76.26
2022-11-12T02:40:52.066Z,76.26
2022-11-12T02:41:52.097Z,76.26
2022-11-12T02:42:52.055Z,76.26
2022-11-12T02:43:52.047Z,76.26
2022-11-12T02:44:52.035Z,76.16
2022-11-12T02:45:52.015Z,76.26
2022-11-12T02:46:52.025Z,76.26
2022-11-12T02:47:51.997Z,76.26
2022-11-12T02:48:51.973Z,76.26
2022-11-12T02:49:51.971Z,76.29
2022-11-12T02:50:51.964Z,76.40
2022-11-12T02:51:51.957Z,76.40
2022-11-12T02:52:51.922Z,76.40
2022-11-12T02:53:51.914Z,76.40
2022-11-12T02:54:51.893Z,76.40
2022-11-12T02:55:51.892Z,76.40
2022-11-12T02:56:51.892Z,76.29
2022-11-12T02:57:51.862Z,76.29
2022-11-12T02:58:51.843Z,76.29
2022-11-12T02:59:51.844Z,76.40
2022-11-12T03:00:51.846Z,76.40
2022-11-12T03:01:51.831Z,76.40
2022-11-12T03:02:51.802Z,76.40
2022-11-12T03:03:51.780Z,76.40
2022-11-12T03:04:51.770Z,76.51
2022-11-12T03:05:51.771Z,76.51
2022-11-12T03:06:51.791Z,76.51
2022-11-12T03:07:51.739Z,76.51
2022-11-12T03:08:51.720Z,76.51
2022-11-12T03:09:51.717Z,76.51
2022-11-12T03:10:51.699Z,76.43
2022-11-12T03:11:51.699Z,76.43
2022-11-12T03:12:51.686Z,76.54
2022-11-12T03:13:51.669Z,76.54
2022-11-12T03:14:51.649Z,76.43
2022-11-12T03:15:51.638Z,76.54
2022-11-12T03:16:51.638Z,76.54
2022-11-12T03:17:51.609Z,76.54
2022-11-12T03:18:51.586Z,76.64
2022-11-12T03:19:51.587Z,76.54
2022-11-12T03:20:51.566Z,76.54
2022-11-12T03:21:51.574Z,76.64
2022-11-12T03:22:51.537Z,76.64
2022-11-12T03:23:51.542Z,76.64
2022-11-12T03:24:51.506Z,76.75
2022-11-12T03:25:51.536Z,76.75
2022-11-12T03:26:51.496Z,76.75
2022-11-12T03:27:51.476Z,76.75
2022-11-12T03:28:51.459Z,76.64
2022-11-12T03:29:51.446Z,76.64
2022-11-12T03:30:51.453Z,76.68
2022-11-12T03:31:51.444Z,76.75
2022-11-12T03:32:51.414Z,76.78
2022-11-12T03:33:51.405Z,76.78
2022-11-12T03:34:55.293Z,76.78
2022-11-12T03:35:51.373Z,76.78
2022-11-12T03:36:51.374Z,76.89
2022-11-12T03:37:51.353Z,76.89
2022-11-12T03:38:51.334Z,76.89
2022-11-12T03:39:51.314Z,76.78
2022-11-12T03:40:51.304Z,76.89
2022-11-12T03:41:51.303Z,76.78
2022-11-12T03:42:58.811Z,76.89
2022-11-12T03:43:58.780Z,76.89
2022-11-12T03:44:58.765Z,76.89
2022-11-12T03:45:51.357Z,76.99
2022-11-12T03:46:51.245Z,76.89
2022-11-12T03:47:51.214Z,76.99
2022-11-12T03:48:51.204Z,76.89
2022-11-12T03:49:51.194Z,76.89
2022-11-12T03:50:51.267Z,76.99
2022-11-12T03:51:51.177Z,76.99
2022-11-12T03:52:51.164Z,76.99
2022-11-12T03:53:51.133Z,77.03
2022-11-12T03:54:51.133Z,77.13
2022-11-12T03:55:51.128Z,77.13
2022-11-12T03:56:51.123Z,77.13
2022-11-12T03:57:51.089Z,77.13
2022-11-12T03:58:51.081Z,77.13
2022-11-12T03:59:51.062Z,77.13
2022-11-12T04:00:51.071Z,77.23
2022-11-12T04:01:51.058Z,77.23
2022-11-12T04:02:51.034Z,77.23
2022-11-12T04:03:51.011Z,77.23
2022-11-12T04:04:51.010Z,77.23
2022-11-12T04:05:50.990Z,77.23
2022-11-12T04:06:51.088Z,77.23
2022-11-12T04:07:50.960Z,77.34
2022-11-12T04:08:50.970Z,77.34
2022-11-12T04:09:50.940Z,77.34
2022-11-12T04:10:50.930Z,77.34
2022-11-12T04:11:50.919Z,77.34
2022-11-12T04:12:50.900Z,77.34
2022-11-12T04:13:50.888Z,77.34
2022-11-12T04:14:50.878Z,77.23
2022-11-12T04:15:50.860Z,77.23
2022-11-12T04:16:50.869Z,77.23
2022-11-12T04:17:50.829Z,77.23
2022-11-12T04:18:50.825Z,77.27
2022-11-12T04:19:50.808Z,77.37
2022-11-12T04:20:50.798Z,77.37
2022-11-12T04:21:50.800Z,77.37
2022-11-12T04:22:50.777Z,77.37
2022-11-12T04:23:50.756Z,77.37
2022-11-12T04:24:50.747Z,77.37
2022-11-12T04:25:50.726Z,77.37
2022-11-12T04:26:50.735Z,77.37
2022-11-12T04:27:50.707Z,77.37
2022-11-12T04:28:50.695Z,77.48
2022-11-12T04:29:50.683Z,77.48
2022-11-12T04:30:50.666Z,77.37
2022-11-12T04:31:50.666Z,77.37
2022-11-12T04:32:50.653Z,77.37
2022-11-12T04:33:50.626Z,77.48
2022-11-12T04:34:50.709Z,77.37
2022-11-12T04:35:50.603Z,77.37
2022-11-12T04:36:50.610Z,77.37
2022-11-12T04:37:50.588Z,77.37
2022-11-12T04:38:50.601Z,77.48
2022-11-12T04:39:50.554Z,77.58
2022-11-12T04:40:50.543Z,77.58
2022-11-12T04:41:50.542Z,77.62
2022-11-12T04:42:50.523Z,77.72
2022-11-12T04:43:50.501Z,77.72
2022-11-12T04:44:50.491Z,77.62
2022-11-12T04:45:50.472Z,77.62
2022-11-12T04:46:50.482Z,77.62
2022-11-12T04:47:50.441Z,77.62
2022-11-12T04:48:50.439Z,77.62
2022-11-12T04:49:50.429Z,77.62
2022-11-12T04:50:50.413Z,77.72
2022-11-12T04:51:50.412Z,77.72
2022-11-12T04:52:50.389Z,77.72
2022-11-12T04:53:50.370Z,77.72
2022-11-12T04:54:50.359Z,77.72
2022-11-12T04:55:50.339Z,77.72
2022-11-12T04:56:50.347Z,77.72
2022-11-12T04:57:50.341Z,77.72
2022-11-12T04:58:50.317Z,77.72
2022-11-12T04:59:50.297Z,77.72
2022-11-12T05:00:50.350Z,77.83
2022-11-12T05:01:50.287Z,77.83
2022-11-12T05:02:50.257Z,77.83
2022-11-12T05:03:50.238Z,77.83
2022-11-12T05:04:50.249Z,77.83
2022-11-12T05:05:50.216Z,77.83
2022-11-12T05:06:50.245Z,77.83
2022-11-12T05:07:50.189Z,77.83
2022-11-12T05:08:50.176Z,77.86
2022-11-12T05:09:50.175Z,77.86
2022-11-12T05:10:50.153Z,77.86
2022-11-12T05:11:50.162Z,77.86
2022-11-12T05:12:50.145Z,77.86
2022-11-12T05:13:50.111Z,77.97
2022-11-12T05:14:50.103Z,77.97
2022-11-12T05:15:50.083Z,77.97
2022-11-12T05:16:50.126Z,77.97
2022-11-12T05:17:50.067Z,77.97
2022-11-12T05:18:50.054Z,77.97
2022-11-12T05:19:50.032Z,77.97
2022-11-12T05:20:50.025Z,77.97
2022-11-12T05:21:50.042Z,78.07
2022-11-12T05:23:05.094Z,78.07
2022-11-12T05:23:51.008Z,77.97
2022-11-12T05:24:49.978Z,77.97
2022-11-12T05:25:49.950Z,77.97
2022-11-12T05:26:49.960Z,77.97
2022-11-12T05:27:49.935Z,77.97
2022-11-12T05:28:49.922Z,77.97
2022-11-12T05:29:49.909Z,77.97
2022-11-12T05:30:49.900Z,77.97
2022-11-12T05:31:49.900Z,77.86
2022-11-12T05:32:49.871Z,77.97
2022-11-12T05:33:49.849Z,78.00
2022-11-12T05:34:49.848Z,78.00
2022-11-12T05:35:49.831Z,78.00
2022-11-12T05:36:49.838Z,77.90
2022-11-12T05:37:49.806Z,78.00
2022-11-12T05:38:49.798Z,77.90
2022-11-12T05:39:49.777Z,77.90
2022-11-12T05:40:49.767Z,78.00
2022-11-12T05:42:11.434Z,78.00
2022-11-12T05:42:50.746Z,78.00
2022-11-12T05:43:49.746Z,78.00
2022-11-12T05:44:49.725Z,78.11
2022-11-12T05:45:49.702Z,78.21
2022-11-12T05:46:49.706Z,78.21
2022-11-12T05:47:49.683Z,78.21
2022-11-12T05:48:49.676Z,78.21
2022-11-12T05:49:49.663Z,78.21
2022-11-12T05:51:11.286Z,78.31
2022-11-12T05:51:50.635Z,78.31
2022-11-12T05:52:49.624Z,78.21
2022-11-12T05:53:49.605Z,78.21
2022-11-12T05:54:49.602Z,78.21
2022-11-12T05:55:49.594Z,78.21
2022-11-12T05:56:49.607Z,78.21
2022-11-12T05:57:49.562Z,78.31
2022-11-12T05:58:49.542Z,78.21
2022-11-12T05:59:49.534Z,78.25
2022-11-12T06:00:49.512Z,78.25
2022-11-12T06:01:49.515Z,78.25
2022-11-12T06:02:49.524Z,78.35
2022-11-12T06:03:49.475Z,78.35
2022-11-12T06:04:49.461Z,78.35
2022-11-12T06:05:49.469Z,78.35
2022-11-12T06:06:49.496Z,78.35
2022-11-12T06:07:49.428Z,78.35
2022-11-12T06:08:49.410Z,78.35
2022-11-12T06:09:49.405Z,78.45
2022-11-12T06:10:49.390Z,78.45
2022-11-12T06:11:49.422Z,78.45
2022-11-12T06:12:49.380Z,78.45
2022-11-12T06:13:49.359Z,78.35
2022-11-12T06:14:49.343Z,78.35
2022-11-12T06:15:49.327Z,78.35
2022-11-12T06:16:49.313Z,78.35
2022-11-12T06:17:49.318Z,78.35
2022-11-12T06:18:49.288Z,78.35
2022-11-12T06:19:49.269Z,78.35
2022-11-12T06:20:49.266Z,78.35
2022-11-12T06:21:49.244Z,78.35
2022-11-12T06:22:49.256Z,78.45
2022-11-12T06:23:49.224Z,78.45
2022-11-12T06:24:49.209Z,78.45
2022-11-12T06:25:49.203Z,78.56
2022-11-12T06:26:49.196Z,78.56
2022-11-12T06:27:49.183Z,78.45
2022-11-12T06:28:49.246Z,78.56
2022-11-12T06:29:49.136Z,78.56
2022-11-12T06:30:49.143Z,78.59
2022-11-12T06:31:49.114Z,78.59
2022-11-12T06:32:49.115Z,78.70
2022-11-12T06:33:49.104Z,78.56
2022-11-12T06:34:49.082Z,78.70
2022-11-12T06:35:49.067Z,78.80
2022-11-12T06:36:49.054Z,78.77
2022-11-12T06:37:49.042Z,78.91
2022-11-12T06:38:49.041Z,78.87
2022-11-12T06:39:49.015Z,78.91
2022-11-12T06:40:49.005Z,78.91
2022-11-12T06:41:48.983Z,79.01
2022-11-12T06:42:48.992Z,79.01
2022-11-12T06:43:48.963Z,79.01
2022-11-12T06:44:48.953Z,79.08
2022-11-12T06:45:48.942Z,79.19
2022-11-12T06:46:48.931Z,79.43
2022-11-12T06:47:57.617Z,79.39
2022-11-12T06:48:48.911Z,79.39
2022-11-12T06:49:48.887Z,79.39
2022-11-12T06:50:48.898Z,79.39
2022-11-12T06:51:48.865Z,79.39
2022-11-12T06:52:48.880Z,79.50
2022-11-12T06:53:48.849Z,79.60
2022-11-12T06:54:48.836Z,79.60
2022-11-12T06:55:48.818Z,79.71
2022-11-12T06:56:48.811Z,79.81
2022-11-12T06:57:48.819Z,79.81
2022-11-12T06:58:48.796Z,79.81
2022-11-12T06:59:48.787Z,79.81
2022-11-12T07:00:48.774Z,79.81
2022-11-12T07:01:48.791Z,79.81
2022-11-12T07:02:48.747Z,79.91
2022-11-12T07:03:48.714Z,80.02
2022-11-12T07:04:48.723Z,80.02
2022-11-12T07:05:48.715Z,80.23
2022-11-12T07:06:48.699Z,80.33
2022-11-12T07:07:48.684Z,80.33
2022-11-12T07:08:48.663Z,80.30
2022-11-12T07:09:48.642Z,80.40
2022-11-12T07:10:48.644Z,80.51
2022-11-12T07:11:48.623Z,80.51
2022-11-12T07:12:53.134Z,80.51
2022-11-12T07:13:48.593Z,80.51
2022-11-12T07:14:48.591Z,80.61
2022-11-12T07:15:48.576Z,80.51
2022-11-12T07:16:48.552Z,80.61
2022-11-12T07:17:48.561Z,80.71
2022-11-12T07:18:48.535Z,80.71
2022-11-12T07:19:48.510Z,80.71
2022-11-12T07:20:48.512Z,80.71
2022-11-12T07:21:48.507Z,80.82
2022-11-12T07:22:48.472Z,80.92
2022-11-12T07:23:48.465Z,80.92
2022-11-12T07:24:48.460Z,80.99
2022-11-12T07:25:48.437Z,81.09
2022-11-12T07:26:48.465Z,81.09
2022-11-12T07:27:48.418Z,81.20
2022-11-12T07:28:48.407Z,81.30
2022-11-12T07:29:48.925Z,81.41
2022-11-12T07:30:48.379Z,81.41
2022-11-12T07:31:48.399Z,81.51
2022-11-12T07:32:51.835Z,81.51
2022-11-12T07:33:48.336Z,81.62
2022-11-12T07:34:48.329Z,81.68
2022-11-12T07:35:48.308Z,81.68
2022-11-12T07:36:48.335Z,81.68
2022-11-12T07:37:48.285Z,81.79
2022-11-12T07:38:48.268Z,81.79
2022-11-12T07:39:48.266Z,81.89
2022-11-12T07:40:48.247Z,81.99
2022-11-12T07:41:48.275Z,82.10
2022-11-12T07:42:48.227Z,82.20
2022-11-12T07:43:48.226Z,82.37
2022-11-12T07:44:48.216Z,82.37
2022-11-12T07:45:48.187Z,82.48
2022-11-12T07:46:48.198Z,82.48
2022-11-12T07:47:48.163Z,82.48
2022-11-12T07:48:48.145Z,82.58
2022-11-12T07:49:48.133Z,82.54
2022-11-12T07:50:48.130Z,82.65
2022-11-12T07:51:48.134Z,82.75
2022-11-12T07:52:48.104Z,82.75
2022-11-12T07:53:48.084Z,82.75
2022-11-12T07:54:48.064Z,82.75
2022-11-12T07:55:48.053Z,82.86
2022-11-12T07:56:48.057Z,82.86
2022-11-12T07:57:48.025Z,82.96
2022-11-12T07:58:48.012Z,82.96
2022-11-12T07:59:48.008Z,82.96
2022-11-12T08:00:48.017Z,82.96
2022-11-12T08:01:48.138Z,82.96
2022-11-12T08:02:47.967Z,82.96
2022-11-12T08:03:47.962Z,82.96
2022-11-12T08:04:47.932Z,82.96
2022-11-12T08:05:47.952Z,83.06
2022-11-12T08:06:47.972Z,83.06
2022-11-12T08:07:47.987Z,83.06
2022-11-12T08:08:47.891Z,83.17
2022-11-12T08:09:47.889Z,83.27
2022-11-12T08:10:47.862Z,83.23
2022-11-12T08:11:47.871Z,83.23
2022-11-12T08:12:47.862Z,83.23
2022-11-12T08:13:47.831Z,83.23
2022-11-12T08:14:47.815Z,83.23
2022-11-12T08:15:52.073Z,83.23
2022-11-12T08:16:47.810Z,83.34
2022-11-12T08:17:47.799Z,83.44
2022-11-12T08:18:47.759Z,83.44
2022-11-12T08:19:47.800Z,83.34
2022-11-12T08:20:47.745Z,83.34
2022-11-12T08:21:47.775Z,83.34
2022-11-12T08:22:49.429Z,83.34
2022-11-12T08:23:47.738Z,83.44
2022-11-12T08:24:47.717Z,83.34
2022-11-12T08:25:47.696Z,83.44
2022-11-12T08:26:47.692Z,83.34
2022-11-12T08:27:47.679Z,83.44
2022-11-12T08:28:47.684Z,83.44
2022-11-12T08:29:47.637Z,83.44
2022-11-12T08:30:47.639Z,83.40
2022-11-12T08:31:47.659Z,83.40
2022-11-12T08:32:47.609Z,83.40
2022-11-12T08:33:47.574Z,83.40
2022-11-12T08:34:47.580Z,83.40
2022-11-12T08:35:47.670Z,83.40
2022-11-12T08:36:47.658Z,83.40
2022-11-12T08:37:47.537Z,83.40
2022-11-12T08:38:47.524Z,83.40
2022-11-12T08:39:47.553Z,83.37
2022-11-12T08:40:47.491Z,83.37
2022-11-12T08:41:47.495Z,83.37
2022-11-12T08:42:47.457Z,83.26
2022-11-12T08:43:47.456Z,83.26
2022-11-12T08:44:47.443Z,83.26
2022-11-12T08:45:47.443Z,83.12
2022-11-12T08:46:47.444Z,83.12
2022-11-12T08:47:47.406Z,83.12
2022-11-12T08:48:47.394Z,83.01
2022-11-12T08:49:48.320Z,83.01
2022-11-12T08:50:47.371Z,83.01
2022-11-12T08:51:47.366Z,82.98
2022-11-12T08:52:47.337Z,82.87
2022-11-12T08:53:47.344Z,82.98
2022-11-12T08:54:47.315Z,83.08
2022-11-12T08:55:47.315Z,83.15
2022-11-12T08:56:47.351Z,83.25
2022-11-12T08:57:47.263Z,83.25
2022-11-12T08:58:47.283Z,83.25
2022-11-12T08:59:47.297Z,83.25
2022-11-12T09:00:47.295Z,83.22
2022-11-12T09:01:47.309Z,83.42
2022-11-12T09:02:47.224Z,83.42
2022-11-12T09:03:47.233Z,83.38
2022-11-12T09:04:47.202Z,83.48
2022-11-12T09:05:47.231Z,83.48
2022-11-12T09:06:52.707Z,83.48
2022-11-12T09:07:50.341Z,83.65
2022-11-12T09:08:47.119Z,83.86
2022-11-12T09:09:47.117Z,84.17
2022-11-12T09:10:47.159Z,84.28
2022-11-12T09:11:47.185Z,84.23
2022-11-12T09:12:47.073Z,84.55
2022-11-12T09:13:47.081Z,85.17
2022-11-12T09:14:47.041Z,85.55
2022-11-12T09:15:47.041Z,85.44
2022-11-12T09:16:47.022Z,85.24
2022-11-12T09:17:46.999Z,85.03
2022-11-12T09:18:46.991Z,84.99
2022-11-12T09:19:46.969Z,84.88
2022-11-12T09:20:46.952Z,84.78
2022-11-12T09:21:46.974Z,84.78
2022-11-12T09:22:46.930Z,84.74
2022-11-12T09:23:46.939Z,84.64
2022-11-12T09:24:46.910Z,84.64
2022-11-12T09:25:46.893Z,84.64
2022-11-12T09:26:46.902Z,84.60
2022-11-12T09:27:48.570Z,84.60
2022-11-12T09:28:46.851Z,84.70
2022-11-12T09:29:46.839Z,84.60
2022-11-12T09:30:46.915Z,84.56
2022-11-12T09:31:46.834Z,84.56
2022-11-12T09:32:46.799Z,84.66
2022-11-12T09:33:46.816Z,84.66
2022-11-12T09:34:46.810Z,84.63
2022-11-12T09:35:46.774Z,84.63
2022-11-12T09:36:46.758Z,84.52
2022-11-12T09:37:46.745Z,84.69
2022-11-12T09:38:46.718Z,84.69
2022-11-12T09:39:46.708Z,84.69
2022-11-12T09:40:46.700Z,84.79
2022-11-12T09:41:46.744Z,84.65
2022-11-12T09:42:46.667Z,84.55
2022-11-12T09:43:46.665Z,84.55
2022-11-12T09:44:46.636Z,84.44
2022-11-12T09:45:54.954Z,84.41
2022-11-12T09:46:47.626Z,84.41
2022-11-12T09:47:46.625Z,84.51
2022-11-12T09:48:46.596Z,84.51
2022-11-12T09:49:46.576Z,84.47
2022-11-12T09:50:46.565Z,84.36
2022-11-12T09:51:46.566Z,84.36
2022-11-12T09:52:46.676Z,84.36
2022-11-12T09:53:46.533Z,84.36
2022-11-12T09:54:46.505Z,84.33
2022-11-12T09:55:46.496Z,84.22
2022-11-12T09:56:46.501Z,84.22
2022-11-12T09:57:46.464Z,84.22
2022-11-12T09:58:46.466Z,84.22
2022-11-12T09:59:46.449Z,84.19
2022-11-12T10:00:46.431Z,84.08
2022-11-12T10:01:46.459Z,84.08
2022-11-12T10:02:46.401Z,84.08
2022-11-12T10:03:46.394Z,84.29
2022-11-12T10:04:46.375Z,84.29
2022-11-12T10:05:46.372Z,84.14
2022-11-12T10:06:46.440Z,84.14
2022-11-12T10:07:46.353Z,84.14
2022-11-12T10:08:46.331Z,84.14
2022-11-12T10:09:46.327Z,84.14
2022-11-12T10:10:46.310Z,84.11
2022-11-12T10:11:46.307Z,84.00
2022-11-12T10:12:46.276Z,84.00
2022-11-12T10:13:46.273Z,84.00
2022-11-12T10:14:46.258Z,84.11
2022-11-12T10:15:46.241Z,84.07
2022-11-12T10:16:46.233Z,84.17
2022-11-12T10:17:46.213Z,84.17
2022-11-12T10:18:46.193Z,84.17
2022-11-12T10:19:46.183Z,84.17
2022-11-12T10:20:46.189Z,84.03
2022-11-12T10:21:46.172Z,84.03
2022-11-12T10:22:46.150Z,83.92
2022-11-12T10:23:46.140Z,83.92
2022-11-12T10:24:46.119Z,83.92
2022-11-12T10:25:46.118Z,83.92
2022-11-12T10:26:46.109Z,83.89
2022-11-12T10:27:46.090Z,83.89
2022-11-12T10:28:46.068Z,83.89
2022-11-12T10:29:46.054Z,83.89
2022-11-12T10:30:46.052Z,83.89
2022-11-12T10:31:46.040Z,83.89
2022-11-12T10:32:46.009Z,83.85
2022-11-12T10:33:46.011Z,83.85
2022-11-12T10:34:46.032Z,83.75
2022-11-12T10:35:45.980Z,83.75
2022-11-12T10:36:45.983Z,83.85
2022-11-12T10:37:45.958Z,83.85
2022-11-12T10:38:45.928Z,83.81
2022-11-12T10:39:45.930Z,83.81
2022-11-12T10:40:45.908Z,83.81
2022-11-12T10:41:45.909Z,83.81
2022-11-12T10:42:45.889Z,83.81
2022-11-12T10:43:45.869Z,83.70
2022-11-12T10:44:45.858Z,83.67
2022-11-12T10:45:45.848Z,83.67
2022-11-12T10:46:45.856Z,83.67
2022-11-12T10:47:45.817Z,83.67
2022-11-12T10:48:45.806Z,83.67
2022-11-12T10:49:45.787Z,83.63
2022-11-12T10:50:45.770Z,83.53
2022-11-12T10:51:45.787Z,83.53
2022-11-12T10:52:45.749Z,83.53
2022-11-12T10:53:45.736Z,83.42
2022-11-12T10:54:48.613Z,83.39
2022-11-12T10:55:46.730Z,83.39
2022-11-12T10:56:45.720Z,83.39
2022-11-12T10:57:45.696Z,83.39
2022-11-12T10:58:45.674Z,83.39
2022-11-12T10:59:45.676Z,83.34
2022-11-12T11:00:45.646Z,83.34
2022-11-12T11:01:46.222Z,83.34
2022-11-12T11:02:45.636Z,83.34
2022-11-12T11:03:45.608Z,83.25
2022-11-12T11:04:45.594Z,83.20
2022-11-12T11:05:45.591Z,83.31
2022-11-12T11:06:45.679Z,83.20
2022-11-12T11:07:45.567Z,83.20
2022-11-12T11:08:45.557Z,83.10
2022-11-12T11:09:45.536Z,83.06
2022-11-12T11:10:45.516Z,83.06
2022-11-12T11:11:45.516Z,83.06
2022-11-12T11:12:45.524Z,83.06
2022-11-12T11:13:45.492Z,82.96
2022-11-12T11:14:45.476Z,82.96
2022-11-12T11:15:45.476Z,82.92
2022-11-12T11:16:45.446Z,82.92
2022-11-12T11:17:45.456Z,82.82
2022-11-12T11:18:45.405Z,82.82
2022-11-12T11:19:45.415Z,82.78
2022-11-12T11:20:45.385Z,82.78
2022-11-12T11:21:45.388Z,82.78
2022-11-12T11:22:45.395Z,82.78
2022-11-12T11:23:45.355Z,82.78
2022-11-12T11:24:45.367Z,82.78
2022-11-12T11:25:45.334Z,82.64
2022-11-12T11:26:45.331Z,82.64
2022-11-12T11:27:45.363Z,82.54
2022-11-12T11:28:45.326Z,82.54
2022-11-12T11:29:45.370Z,82.54
2022-11-12T11:30:45.285Z,82.50
2022-11-12T11:31:45.265Z,82.50
2022-11-12T11:32:45.273Z,82.50
2022-11-12T11:33:45.226Z,82.50
2022-11-12T11:34:45.213Z,82.50
2022-11-12T11:35:45.202Z,82.50
2022-11-12T11:36:45.201Z,82.46
2022-11-12T11:37:45.230Z,82.46
2022-11-12T11:38:45.165Z,82.46
2022-11-12T11:39:45.183Z,82.36
2022-11-12T11:40:45.122Z,82.46
2022-11-12T11:41:45.125Z,82.42
2022-11-12T11:42:45.196Z,82.42
2022-11-12T11:43:45.255Z,82.32
2022-11-12T11:44:45.104Z,82.32
2022-11-12T11:45:45.076Z,82.22
2022-11-12T11:46:45.061Z,82.18
2022-11-12T11:48:00.595Z,82.18
2022-11-12T11:48:46.054Z,82.28
2022-11-12T11:49:45.014Z,82.18
2022-11-12T11:50:44.981Z,82.14
2022-11-12T11:51:44.984Z,82.24
2022-11-12T11:52:45.013Z,82.14
2022-11-12T11:53:44.963Z,82.21
2022-11-12T11:54:44.960Z,82.10
2022-11-12T11:55:44.992Z,82.21
2022-11-12T11:56:44.955Z,82.21
2022-11-12T11:57:44.921Z,82.17
2022-11-12T11:58:44.929Z,82.07
2022-11-12T11:59:44.916Z,82.07
2022-11-12T12:00:44.881Z,82.03
2022-11-12T12:01:44.913Z,82.03
2022-11-12T12:02:44.883Z,81.93
2022-11-12T12:03:44.851Z,81.99
2022-11-12T12:04:44.813Z,81.99
2022-11-12T12:05:44.843Z,81.95
2022-11-12T12:06:44.881Z,81.95
2022-11-12T12:07:44.796Z,81.95
2022-11-12T12:08:44.862Z,81.81
2022-11-12T12:09:44.867Z,81.71
2022-11-12T12:11:09.228Z,81.67
2022-11-12T12:12:55.697Z,81.67
2022-11-12T12:14:03.167Z,81.23
2022-11-12T12:14:55.635Z,80.92
2022-11-12T12:15:55.632Z,80.82
2022-11-12T12:16:55.629Z,80.72
2022-11-12T12:17:55.624Z,79.97
2022-11-12T12:18:55.598Z,79.97
2022-11-12T12:19:55.594Z,80.17
2022-11-12T12:20:55.567Z,80.03
2022-11-12T12:21:55.564Z,80.03
2022-11-12T12:22:55.552Z,79.72
2022-11-12T12:23:55.566Z,79.38
2022-11-12T12:24:55.524Z,79.28
2022-11-12T12:26:00.004Z,79.35
2022-11-12T12:26:56.510Z,79.55
2022-11-12T12:27:55.512Z,79.35
2022-11-12T12:28:55.465Z,78.50
2022-11-12T12:29:55.465Z,78.30
2022-11-12T12:30:55.469Z,78.36
2022-11-12T12:31:55.455Z,78.56
2022-11-12T12:32:55.471Z,77.14
2022-11-12T12:33:55.425Z,77.04
2022-11-12T12:34:55.376Z,77.31
2022-11-12T12:35:55.433Z,77.61
2022-11-12T12:36:55.374Z,77.92
2022-11-12T12:37:55.394Z,77.98
2022-11-12T12:38:55.327Z,77.98
2022-11-12T12:39:55.339Z,77.88
2022-11-12T12:40:55.336Z,77.98
2022-11-12T12:41:55.318Z,77.84
2022-11-12T12:42:55.326Z,77.64
2022-11-12T12:43:55.288Z,77.54
2022-11-12T12:44:55.254Z,77.03
2022-11-12T12:45:55.268Z,77.00
2022-11-12T12:46:55.212Z,77.00
2022-11-12T12:47:55.268Z,76.86
2022-11-12T12:48:55.204Z,76.86
2022-11-12T12:49:55.195Z,76.86
2022-11-12T12:50:55.186Z,76.86
2022-11-12T12:51:56.036Z,76.82
2022-11-12T12:52:55.166Z,76.52
2022-11-12T12:53:55.135Z,76.52